createdAt,value
2023-01-29T00:01:34.718Z,-0.50
2023-01-29T00:04:01.158Z,-0.53
2023-01-29T00:06:27.648Z,-0.51
2023-01-29T00:08:54.153Z,-0.57
2023-01-29T00:11:20.623Z,-0.46
2023-01-29T00:13:47.355Z,-0.64
2023-01-29T00:16:13.896Z,-0.57
2023-01-29T00:18:41.155Z,-0.57
2023-01-29T00:21:12.718Z,-0.49
2023-01-29T00:23:39.160Z,-0.46
2023-01-29T00:26:06.258Z,-0.52
2023-01-29T00:28:33.110Z,-0.49
2023-01-29T00:31:06.285Z,-0.46
2023-01-29T00:33:32.741Z,-0.45
2023-01-29T00:36:02.563Z,-0.43
2023-01-29T00:38:29.023Z,-0.42
2023-01-29T00:41:13.770Z,-0.65
2023-01-29T00:43:58.891Z,-0.40
2023-01-29T00:46:25.433Z,-0.40
2023-01-29T00:48:51.840Z,-0.48
2023-01-29T00:51:18.295Z,-0.40
2023-01-29T00:53:44.817Z,-0.41
2023-01-29T00:56:11.232Z,-0.58
2023-01-29T00:58:37.701Z,-0.62
2023-01-29T01:01:04.218Z,-0.62
2023-01-29T01:03:35.154Z,-0.74
2023-01-29T01:06:06.354Z,-0.85
2023-01-29T01:08:51.311Z,-0.73
2023-01-29T01:11:17.854Z,-0.76
2023-01-29T01:13:44.319Z,-0.92
2023-01-29T01:16:12.879Z,-0.89
2023-01-29T01:18:39.568Z,-0.86
2023-01-29T01:21:06.369Z,-0.92
2023-01-29T01:23:33.429Z,-0.89
2023-01-29T01:26:00.202Z,-0.95
2023-01-29T01:28:27.876Z,-1.27
2023-01-29T01:30:54.738Z,-1.18
2023-01-29T01:33:21.423Z,-1.12
2023-01-29T01:35:47.891Z,-1.17
2023-01-29T01:38:14.318Z,-1.22
2023-01-29T01:40:45.813Z,-1.23
2023-01-29T01:43:12.314Z,-1.17
2023-01-29T01:45:38.791Z,-1.17
2023-01-29T01:48:13.065Z,-1.15
2023-01-29T01:51:06.306Z,-1.17
2023-01-29T01:54:17.597Z,-1.23
2023-01-29T01:56:49.125Z,-1.31
2023-01-29T01:59:19.434Z,-1.41
2023-01-29T02:01:50.067Z,-1.41
2023-01-29T02:04:44.486Z,-1.48
2023-01-29T02:07:33.496Z,-1.40
2023-01-29T02:10:12.038Z,-1.36
2023-01-29T02:12:38.617Z,-1.34
2023-01-29T02:15:05.875Z,-1.41
2023-01-29T02:17:32.960Z,-1.49
2023-01-29T02:20:08.668Z,-1.48
2023-01-29T02:23:02.724Z,-1.54
2023-01-29T02:26:07.725Z,-1.51
2023-01-29T02:28:43.397Z,-1.51
2023-01-29T02:31:27.722Z,-1.40
2023-01-29T02:34:06.266Z,-1.30
2023-01-29T02:36:49.693Z,-1.27
2023-01-29T02:39:36.885Z,-1.22
2023-01-29T02:42:24.752Z,-1.33
2023-01-29T02:44:59.011Z,-1.30
2023-01-29T02:47:40.715Z,-1.31
2023-01-29T02:50:20.735Z,-1.34
2023-01-29T02:52:59.078Z,-1.34
2023-01-29T02:55:30.281Z,-1.43
2023-01-29T02:58:06.811Z,-1.39
2023-01-29T03:00:39.540Z,-1.32
2023-01-29T03:03:16.428Z,-1.40
2023-01-29T03:05:51.110Z,-1.51
2023-01-29T03:08:23.793Z,-1.53
2023-01-29T03:11:04.255Z,-1.51
2023-01-29T03:13:49.062Z,-1.73
2023-01-29T03:16:38.529Z,-1.44
2023-01-29T03:19:10.866Z,-1.55
2023-01-29T03:21:55.118Z,-1.49
2023-01-29T03:24:48.741Z,-1.52
2023-01-29T03:27:37.327Z,-1.51
2023-01-29T03:30:26.465Z,-1.71
2023-01-29T03:32:55.426Z,-1.79
2023-01-29T03:35:33.400Z,-1.70
2023-01-29T03:38:00.975Z,-1.76
2023-01-29T03:40:34.982Z,-1.87
2023-01-29T03:43:25.867Z,-1.87
2023-01-29T03:46:08.300Z,-2.22
2023-01-29T03:48:50.657Z,-2.34
2023-01-29T03:51:41.301Z,-2.10
2023-01-29T03:54:17.235Z,-2.10
2023-01-29T03:57:15.468Z,-2.18
2023-01-29T03:59:44.892Z,-2.29
2023-01-29T04:02:27.679Z,-2.33
2023-01-29T04:04:59.074Z,-2.28
2023-01-29T04:07:29.321Z,-2.29
2023-01-29T04:10:00.145Z,-2.32
2023-01-29T04:12:31.791Z,-2.68
2023-01-29T04:15:01.776Z,-2.83
2023-01-29T04:17:34.873Z,-2.86
2023-01-29T04:20:02.069Z,-2.81
2023-01-29T04:22:32.894Z,-2.80
2023-01-29T04:25:02.964Z,-2.90
2023-01-29T04:27:29.279Z,-2.79
2023-01-29T04:30:23.015Z,-2.86
2023-01-29T04:32:55.332Z,-2.79
2023-01-29T04:35:31.884Z,-2.69
2023-01-29T04:38:11.452Z,-2.63
2023-01-29T04:40:53.054Z,-2.55
2023-01-29T04:43:35.487Z,-2.45
2023-01-29T04:46:11.127Z,-2.46
2023-01-29T04:49:13.029Z,-2.57
2023-01-29T04:52:24.723Z,-2.40
2023-01-29T04:55:09.487Z,-2.38
2023-01-29T04:57:47.339Z,-2.24
2023-01-29T05:00:19.241Z,-2.24
2023-01-29T05:02:46.393Z,-2.30
2023-01-29T05:05:15.655Z,-2.23
2023-01-29T05:07:44.008Z,-2.23
2023-01-29T05:10:13.722Z,-2.23
2023-01-29T05:12:43.894Z,-2.20
2023-01-29T05:15:15.949Z,-2.28
2023-01-29T05:17:42.732Z,-2.37
2023-01-29T05:20:11.298Z,-2.40
2023-01-29T05:22:41.240Z,-2.40
2023-01-29T05:25:28.724Z,-2.53
2023-01-29T05:28:11.742Z,-2.58
2023-01-29T05:30:39.930Z,-2.45
2023-01-29T05:33:14.026Z,-2.49
2023-01-29T05:35:40.838Z,-2.60
2023-01-29T05:38:07.918Z,-2.76
2023-01-29T05:40:34.792Z,-2.89
2023-01-29T05:43:01.429Z,-2.90
2023-01-29T05:45:27.928Z,-2.83
2023-01-29T05:47:58.766Z,-2.62
2023-01-29T05:50:26.876Z,-2.56
2023-01-29T05:53:00.214Z,-2.44
2023-01-29T05:55:29.362Z,-2.43
2023-01-29T05:57:55.871Z,-2.46
2023-01-29T06:00:22.503Z,-2.38
2023-01-29T06:02:49.603Z,-2.48
2023-01-29T06:05:16.192Z,-2.50
2023-01-29T06:07:45.538Z,-2.59
2023-01-29T06:10:17.233Z,-2.85
2023-01-29T06:12:44.616Z,-2.90
2023-01-29T06:15:12.319Z,-2.88
2023-01-29T06:17:38.883Z,-3.17
2023-01-29T06:20:05.911Z,-3.33
2023-01-29T06:22:33.351Z,-3.32
2023-01-29T06:24:59.739Z,-3.35
2023-01-29T06:27:26.139Z,-3.38
2023-01-29T06:29:55.691Z,-3.36
2023-01-29T06:32:22.141Z,-3.43
2023-01-29T06:34:49.761Z,-3.41
2023-01-29T06:37:16.346Z,-3.41
2023-01-29T06:39:42.855Z,-3.55
2023-01-29T06:42:10.046Z,-3.34
2023-01-29T06:44:36.948Z,-3.32
2023-01-29T06:47:03.412Z,-3.19
2023-01-29T06:49:29.855Z,-3.30
2023-01-29T06:51:56.530Z,-3.36
2023-01-29T06:54:23.146Z,-3.45
2023-01-29T06:56:49.623Z,-3.44
2023-01-29T06:59:16.020Z,-3.25
2023-01-29T07:01:44.222Z,-3.38
2023-01-29T07:04:11.588Z,-3.46
2023-01-29T07:06:38.138Z,-3.52
2023-01-29T07:09:05.143Z,-3.54
2023-01-29T07:11:32.174Z,-3.36
2023-01-29T07:13:58.869Z,-3.19
2023-01-29T07:16:26.279Z,-3.19
2023-01-29T07:18:53.472Z,-3.07
2023-01-29T07:21:20.009Z,-3.30
2023-01-29T07:23:46.449Z,-3.47
2023-01-29T07:26:12.937Z,-3.56
2023-01-29T07:28:40.240Z,-3.50
2023-01-29T07:31:07.713Z,-3.47
2023-01-29T07:33:34.800Z,-3.48
2023-01-29T07:36:01.200Z,-3.41
2023-01-29T07:38:28.024Z,-3.40
2023-01-29T07:40:55.321Z,-3.29
2023-01-29T07:46:01.031Z,-2.03
2023-01-29T07:48:27.493Z,-1.70
2023-01-29T07:50:55.478Z,-1.58
2023-01-29T07:53:22.000Z,-1.62
2023-01-29T07:55:48.431Z,-1.50
2023-01-29T07:58:14.846Z,-1.31
2023-01-29T08:00:41.359Z,-1.25
2023-01-29T08:03:12.092Z,-1.37
2023-01-29T08:05:38.491Z,-1.49
2023-01-29T08:08:07.432Z,-1.48
2023-01-29T08:10:38.745Z,-1.47
2023-01-29T08:13:06.170Z,-1.44
2023-01-29T08:15:33.298Z,-1.44
2023-01-29T08:18:01.860Z,-1.52
2023-01-29T08:20:28.557Z,-1.58
2023-01-29T08:23:06.300Z,-1.54
2023-01-29T08:25:33.620Z,-1.33
2023-01-29T08:28:01.043Z,-1.05
2023-01-29T08:30:29.907Z,-0.71
2023-01-29T08:32:56.520Z,-0.39
2023-01-29T08:35:23.466Z,0.18
2023-01-29T08:37:59.212Z,0.16
2023-01-29T08:40:26.527Z,0.02
2023-01-29T08:42:53.132Z,0.23
2023-01-29T08:45:19.568Z,0.41
2023-01-29T08:47:49.957Z,0.55
2023-01-29T08:50:18.269Z,0.36
2023-01-29T08:52:45.841Z,0.32
2023-01-29T08:55:12.508Z,0.19
2023-01-29T08:57:39.256Z,0.13
2023-01-29T09:00:07.871Z,-0.03
2023-01-29T09:02:34.387Z,-0.13
2023-01-29T09:05:00.789Z,-0.07
2023-01-29T09:07:29.176Z,0.04
2023-01-29T09:09:55.621Z,0.01
2023-01-29T09:12:22.053Z,-0.02
2023-01-29T09:14:48.489Z,0.00
2023-01-29T09:17:15.448Z,-0.15
2023-01-29T09:19:42.029Z,-0.86
2023-01-29T09:22:10.352Z,-0.42
2023-01-29T09:24:37.586Z,-0.10
2023-01-29T09:27:05.147Z,0.04
2023-01-29T09:29:33.055Z,-0.03
2023-01-29T09:32:00.600Z,-0.07
2023-01-29T09:34:27.000Z,-0.02
2023-01-29T09:36:53.392Z,0.07
2023-01-29T09:39:19.900Z,0.07
2023-01-29T09:41:55.108Z,0.11
2023-01-29T09:44:43.968Z,0.10
2023-01-29T09:47:15.403Z,-0.01
2023-01-29T09:49:57.940Z,-0.10
2023-01-29T09:52:32.647Z,0.11
2023-01-29T09:55:27.155Z,0.27
2023-01-29T09:58:06.028Z,-0.01
2023-01-29T10:01:06.314Z,0.01
2023-01-29T10:04:02.684Z,0.04
2023-01-29T10:06:41.288Z,0.23
2023-01-29T10:09:35.067Z,0.06
2023-01-29T10:12:26.332Z,-0.28
2023-01-29T10:15:00.776Z,-0.61
2023-01-29T10:17:44.889Z,0.54
2023-01-29T10:20:33.213Z,0.42
2023-01-29T10:23:21.090Z,0.06
2023-01-29T10:25:48.484Z,0.57
2023-01-29T10:28:25.273Z,0.39
2023-01-29T10:30:59.833Z,0.73
2023-01-29T10:33:49.603Z,1.46
2023-01-29T10:36:36.031Z,0.85
2023-01-29T10:39:02.605Z,0.84
2023-01-29T10:41:45.081Z,0.06
2023-01-29T10:44:25.930Z,0.70
2023-01-29T10:47:20.007Z,1.64
2023-01-29T10:49:58.538Z,2.61
2023-01-29T10:52:50.756Z,2.84
2023-01-29T10:55:35.204Z,3.29
2023-01-29T10:58:19.336Z,2.90
2023-01-29T11:00:45.859Z,1.25
2023-01-29T11:03:34.230Z,2.25
2023-01-29T11:06:21.681Z,2.63
2023-01-29T11:09:11.811Z,3.35
2023-01-29T11:11:47.753Z,5.23
2023-01-29T11:14:18.948Z,6.39
2023-01-29T11:16:48.897Z,6.76
2023-01-29T11:19:16.505Z,6.53
2023-01-29T11:21:59.784Z,6.29
2023-01-29T11:24:26.770Z,6.11
2023-01-29T11:26:57.492Z,6.69
2023-01-29T11:29:29.747Z,6.88
2023-01-29T11:31:58.708Z,6.39
2023-01-29T11:34:27.736Z,5.48
2023-01-29T11:37:00.239Z,5.37
2023-01-29T11:39:28.591Z,5.12
2023-01-29T11:42:00.585Z,5.00
2023-01-29T11:44:37.020Z,3.64
2023-01-29T11:47:26.502Z,3.70
2023-01-29T11:49:56.014Z,3.69
2023-01-29T11:52:25.966Z,3.93
2023-01-29T11:55:00.933Z,3.75
2023-01-29T11:57:38.074Z,3.81
2023-01-29T12:00:26.280Z,3.44
2023-01-29T12:03:03.073Z,3.54
2023-01-29T12:05:29.648Z,3.62
2023-01-29T12:07:59.891Z,3.85
2023-01-29T12:10:40.974Z,4.16
2023-01-29T12:13:10.529Z,3.63
2023-01-29T12:15:38.584Z,3.73
2023-01-29T12:18:30.244Z,4.90
2023-01-29T12:21:05.574Z,5.39
2023-01-29T12:23:47.200Z,5.41
2023-01-29T12:26:25.600Z,5.04
2023-01-29T12:29:05.968Z,5.28
2023-01-29T12:32:01.004Z,4.99
2023-01-29T12:34:45.608Z,3.57
2023-01-29T12:37:30.672Z,4.30
2023-01-29T12:39:57.244Z,4.48
2023-01-29T12:42:24.603Z,3.28
2023-01-29T12:45:01.364Z,3.88
2023-01-29T12:47:39.840Z,3.36
2023-01-29T12:50:27.526Z,2.10
2023-01-29T12:52:58.513Z,2.90
2023-01-29T12:55:27.963Z,2.48
2023-01-29T12:58:02.146Z,2.52
2023-01-29T13:00:33.905Z,2.20
2023-01-29T13:03:19.184Z,2.09
2023-01-29T13:05:50.298Z,3.06
2023-01-29T13:08:42.129Z,2.35
2023-01-29T13:11:14.519Z,3.04
2023-01-29T13:13:41.103Z,4.78
2023-01-29T13:16:12.549Z,5.51
2023-01-29T13:18:55.705Z,6.65
2023-01-29T13:21:25.530Z,7.52
2023-01-29T13:23:55.684Z,4.67
2023-01-29T13:26:23.769Z,5.95
2023-01-29T13:28:51.822Z,5.64
2023-01-29T13:31:31.539Z,5.01
2023-01-29T13:34:12.688Z,6.59
2023-01-29T13:36:44.095Z,8.58
2023-01-29T13:39:27.303Z,8.00
2023-01-29T13:41:55.814Z,9.36
2023-01-29T13:44:35.817Z,7.89
2023-01-29T13:47:11.766Z,9.84
2023-01-29T13:49:42.238Z,8.98
2023-01-29T13:52:16.604Z,8.67
2023-01-29T13:54:54.776Z,9.23
2023-01-29T13:57:41.511Z,10.35
2023-01-29T14:00:25.020Z,12.13
2023-01-29T14:02:54.277Z,7.92
2023-01-29T14:05:29.585Z,11.45
2023-01-29T14:08:03.433Z,12.71
2023-01-29T14:10:32.684Z,13.22
2023-01-29T14:13:04.959Z,11.29
2023-01-29T14:15:36.391Z,11.56
2023-01-29T14:18:04.256Z,9.74
2023-01-29T14:20:46.084Z,11.67
2023-01-29T14:23:22.244Z,11.04
2023-01-29T14:25:49.147Z,7.89
2023-01-29T14:28:22.953Z,7.98
2023-01-29T14:30:51.107Z,7.37
2023-01-29T14:33:33.357Z,6.67
2023-01-29T14:36:05.162Z,4.33
2023-01-29T14:38:32.813Z,3.53
2023-01-29T14:41:18.171Z,2.31
2023-01-29T14:43:44.603Z,1.89
2023-01-29T14:46:44.771Z,2.33
2023-01-29T14:49:11.413Z,1.72
2023-01-29T14:51:41.820Z,1.92
2023-01-29T14:54:22.653Z,1.73
2023-01-29T14:57:02.357Z,1.32
2023-01-29T15:00:05.315Z,0.90
2023-01-29T15:02:43.872Z,0.41
2023-01-29T15:05:37.074Z,0.29
2023-01-29T15:08:13.572Z,0.43
2023-01-29T15:10:46.001Z,0.55
2023-01-29T15:13:27.819Z,0.09
2023-01-29T15:16:02.605Z,0.22
2023-01-29T15:18:35.044Z,0.25
2023-01-29T15:21:13.463Z,0.21
2023-01-29T15:23:44.178Z,-0.17
2023-01-29T15:26:19.791Z,-0.16
2023-01-29T15:29:02.197Z,-0.20
2023-01-29T15:31:30.556Z,-0.31
2023-01-29T15:33:57.261Z,-0.19
2023-01-29T15:36:29.879Z,-0.18
2023-01-29T15:39:11.620Z,-0.30
2023-01-29T15:41:38.363Z,-0.59
2023-01-29T15:44:14.149Z,-0.70
2023-01-29T15:46:43.159Z,-0.59
2023-01-29T15:49:17.351Z,-0.69
2023-01-29T15:51:44.147Z,-0.65
2023-01-29T15:54:15.895Z,-0.68
2023-01-29T15:56:51.862Z,-0.67
2023-01-29T15:59:22.657Z,-0.73
2023-01-29T16:01:49.192Z,-0.70
2023-01-29T16:04:24.133Z,-0.49
2023-01-29T16:06:54.236Z,-0.64
2023-01-29T16:09:23.651Z,-0.64
2023-01-29T16:11:51.605Z,-0.61
2023-01-29T16:14:22.169Z,-0.63
2023-01-29T16:16:49.167Z,-0.58
2023-01-29T16:19:26.981Z,-0.59
2023-01-29T16:21:59.900Z,-0.55
2023-01-29T16:24:27.474Z,-0.60
2023-01-29T16:27:00.498Z,-0.86
2023-01-29T16:29:35.982Z,-1.07
2023-01-29T16:32:03.389Z,-0.97
2023-01-29T16:34:37.831Z,-0.84
2023-01-29T16:37:07.772Z,-0.70
2023-01-29T16:39:43.847Z,-0.73
2023-01-29T16:42:17.017Z,-0.88
2023-01-29T16:45:23.185Z,-0.66
2023-01-29T16:48:00.687Z,-0.46
2023-01-29T16:50:36.051Z,-0.52
2023-01-29T16:53:12.162Z,-0.61
2023-01-29T16:55:49.344Z,-0.60
2023-01-29T16:58:27.795Z,-0.74
2023-01-29T17:01:08.981Z,-1.10
2023-01-29T17:03:37.046Z,-1.10
2023-01-29T17:06:24.948Z,-1.15
2023-01-29T17:08:52.235Z,-1.11
2023-01-29T17:11:31.925Z,-1.17
2023-01-29T17:13:59.186Z,-1.29
2023-01-29T17:16:31.582Z,-1.33
2023-01-29T17:18:59.332Z,-1.38
2023-01-29T17:21:26.685Z,-1.45
2023-01-29T17:23:53.518Z,-1.53
2023-01-29T17:26:21.204Z,-1.62
2023-01-29T17:28:50.253Z,-1.70
2023-01-29T17:31:16.833Z,-1.79
2023-01-29T17:33:43.680Z,-1.91
2023-01-29T17:36:13.637Z,-1.94
2023-01-29T17:38:41.313Z,-2.02
2023-01-29T17:41:22.253Z,-2.05
2023-01-29T17:43:48.674Z,-1.97
2023-01-29T17:46:17.139Z,-2.07
2023-01-29T17:48:44.684Z,-2.11
2023-01-29T17:51:17.203Z,-2.15
2023-01-29T17:53:46.259Z,-2.39
2023-01-29T17:56:17.569Z,-2.37
2023-01-29T17:58:44.375Z,-2.39
2023-01-29T18:01:10.897Z,-2.31
2023-01-29T18:03:37.446Z,-2.51
2023-01-29T18:06:07.669Z,-2.41
2023-01-29T18:08:36.913Z,-2.39
2023-01-29T18:11:03.429Z,-2.45
2023-01-29T18:13:30.130Z,-2.51
2023-01-29T18:15:56.619Z,-2.65
2023-01-29T18:18:24.540Z,-2.77
2023-01-29T18:20:50.981Z,-2.79
2023-01-29T18:23:17.559Z,-2.75
2023-01-29T18:25:44.740Z,-2.86
2023-01-29T18:28:17.655Z,-2.91
2023-01-29T18:30:47.192Z,-2.60
2023-01-29T18:33:15.164Z,-2.72
2023-01-29T18:35:44.116Z,-2.79
2023-01-29T18:38:10.626Z,-2.83
2023-01-29T18:40:37.335Z,-2.89
2023-01-29T18:43:04.227Z,-2.82
2023-01-29T18:45:31.043Z,-3.05
2023-01-29T18:47:57.683Z,-3.17
2023-01-29T18:50:26.327Z,-3.26
2023-01-29T18:52:54.146Z,-3.27
2023-01-29T18:55:21.103Z,-3.38
2023-01-29T18:58:26.285Z,-3.44
2023-01-29T19:00:34.909Z,-3.41
2023-01-29T19:03:01.467Z,-3.40
2023-01-29T19:05:28.016Z,-3.47
2023-01-29T19:07:54.450Z,-3.61
2023-01-29T19:10:20.936Z,-3.59
2023-01-29T19:12:47.763Z,-3.63
2023-01-29T19:15:14.272Z,-3.78
2023-01-29T19:17:40.755Z,-3.99
2023-01-29T19:20:09.497Z,-4.12
2023-01-29T19:22:36.235Z,-4.16
2023-01-29T19:25:02.845Z,-4.21
2023-01-29T19:27:30.415Z,-4.15
2023-01-29T19:29:58.219Z,-4.08
2023-01-29T19:32:24.877Z,-4.02
2023-01-29T19:34:51.521Z,-3.89
2023-01-29T19:37:18.137Z,-3.78
2023-01-29T19:39:44.623Z,-3.72
2023-01-29T19:42:11.135Z,-3.86
2023-01-29T19:44:38.963Z,-3.65
2023-01-29T19:47:05.802Z,-3.63
2023-01-29T19:49:34.051Z,-3.68
2023-01-29T19:52:01.436Z,-3.71
2023-01-29T19:54:28.061Z,-3.44
2023-01-29T19:56:54.712Z,-3.33
2023-01-29T19:59:21.714Z,-3.29
2023-01-29T20:01:48.539Z,-3.33
2023-01-29T20:04:15.031Z,-3.26
2023-01-29T20:06:41.443Z,-3.20
2023-01-29T20:09:08.626Z,-3.32
2023-01-29T20:11:35.083Z,-3.22
2023-01-29T20:14:01.598Z,-3.10
2023-01-29T20:16:28.255Z,-3.19
2023-01-29T20:18:54.745Z,-3.12
2023-01-29T20:21:41.827Z,-2.94
2023-01-29T20:24:12.475Z,-2.86
2023-01-29T20:26:39.124Z,-2.86
2023-01-29T20:29:06.490Z,-2.81
2023-01-29T20:31:33.429Z,-2.55
2023-01-29T20:34:00.119Z,-2.46
2023-01-29T20:36:26.654Z,-2.38
2023-01-29T20:38:53.319Z,-2.35
2023-01-29T20:41:20.084Z,-2.16
2023-01-29T20:43:47.361Z,-2.26
2023-01-29T20:46:14.276Z,-2.23
2023-01-29T20:48:41.897Z,-2.11
2023-01-29T20:51:13.638Z,-1.81
2023-01-29T20:53:41.153Z,-1.67
2023-01-29T20:56:08.110Z,-1.65
2023-01-29T20:58:35.247Z,-1.88
2023-01-29T21:01:04.470Z,-1.81
2023-01-29T21:03:30.997Z,-1.89
2023-01-29T21:05:59.040Z,-1.69
2023-01-29T21:08:25.505Z,-1.77
2023-01-29T21:10:53.097Z,-1.77
2023-01-29T21:13:19.645Z,-1.85
2023-01-29T21:15:46.691Z,-1.94
2023-01-29T21:18:13.134Z,-1.77
2023-01-29T21:20:39.779Z,-1.60
2023-01-29T21:23:07.328Z,-1.38
2023-01-29T21:25:34.087Z,-1.58
2023-01-29T21:28:04.247Z,-1.66
2023-01-29T21:30:31.047Z,-1.71
2023-01-29T21:32:57.504Z,-1.64
2023-01-29T21:35:23.954Z,-1.59
2023-01-29T21:37:50.379Z,-1.70
2023-01-29T21:40:17.500Z,-1.59
2023-01-29T21:43:03.071Z,-1.64
2023-01-29T21:45:29.531Z,-1.63
2023-01-29T21:47:55.999Z,-1.60
2023-01-29T21:50:22.529Z,-1.60
2023-01-29T21:52:49.114Z,-1.53
2023-01-29T21:55:15.881Z,-1.49
2023-01-29T21:57:43.074Z,-1.46
2023-01-29T22:00:12.397Z,-1.28
2023-01-29T22:02:39.528Z,-1.37
2023-01-29T22:05:18.697Z,-1.33
2023-01-29T22:07:45.765Z,-1.23
2023-01-29T22:10:12.480Z,-1.20
2023-01-29T22:12:39.858Z,-1.13
2023-01-29T22:15:07.760Z,-1.14
2023-01-29T22:17:35.235Z,-1.11
2023-01-29T22:20:02.176Z,-1.04
2023-01-29T22:22:28.542Z,-0.93
2023-01-29T22:24:56.481Z,-0.88
2023-01-29T22:27:22.903Z,-0.56
2023-01-29T22:29:49.350Z,-0.69
2023-01-29T22:32:16.378Z,-0.85
2023-01-29T22:34:43.077Z,-0.94
2023-01-29T22:37:09.534Z,-0.89
2023-01-29T22:39:36.010Z,-0.81
2023-01-29T22:42:02.535Z,-0.77
2023-01-29T22:44:28.969Z,-0.79
2023-01-29T22:46:55.460Z,-0.74
2023-01-29T22:49:23.105Z,-0.65
2023-01-29T22:52:09.464Z,-0.60
2023-01-29T22:54:40.905Z,-0.68
2023-01-29T22:57:10.151Z,-0.56
2023-01-29T22:59:36.707Z,-0.45
2023-01-29T23:02:03.469Z,-0.40
2023-01-29T23:04:30.075Z,-0.47
2023-01-29T23:06:56.657Z,-0.31
2023-01-29T23:09:23.586Z,-0.33
2023-01-29T23:11:50.275Z,-0.27
2023-01-29T23:14:16.731Z,-0.28
2023-01-29T23:16:43.334Z,-0.32
2023-01-29T23:19:11.300Z,-0.17
2023-01-29T23:21:38.363Z,-0.24
2023-01-29T23:24:05.897Z,-0.07
2023-01-29T23:26:50.802Z,-0.07
2023-01-29T23:29:17.311Z,-0.01
2023-01-29T23:31:43.817Z,0.17
2023-01-29T23:34:10.327Z,0.16
2023-01-29T23:36:36.800Z,0.44
2023-01-29T23:39:03.856Z,0.66
2023-01-29T23:41:30.409Z,0.62
2023-01-29T23:43:56.839Z,0.69
2023-01-29T23:46:23.516Z,0.19
2023-01-29T23:48:49.996Z,0.28
2023-01-29T23:51:16.457Z,0.37
2023-01-29T23:53:43.101Z,0.41
2023-01-29T23:56:10.424Z,0.75
2023-01-29T23:58:36.909Z,0.66
